Time;durP1;ratioP1;P1;durP2;ratioP2;P2;SDS_P1;SDS_P2;PMS_P1;PMS_P2;Temp;Humidity;BMP_temperature;BMP_pressure;BME280_temperature;BME280_humidity;BME280_pressure;Samples;Min_cycle;Max_cycle;Signal;HPM_P1;HPM_P2
2022/08/01 00:00:20;;;;;;;;;;;21.20;99.90;;;;;;4988347;28;19926;-72
2022/08/01 00:02:46;;;;;;;;;;;21.10;99.90;;;;;;4983702;28;19921;-73
2022/08/01 00:05:11;;;;;;;;;;;21.10;99.90;;;;;;4988287;28;20371;-72
2022/08/01 00:07:37;;;;;;;;;;;21.10;99.90;;;;;;4984972;28;19973;-73
2022/08/01 00:10:03;;;;;;;;;;;21.00;99.90;;;;;;4989760;28;19964;-72
2022/08/01 00:12:28;;;;;;;;;;;21.10;99.90;;;;;;4986553;28;19998;-71
2022/08/01 00:14:54;;;;;;;;;;;21.00;99.90;;;;;;5003006;28;20323;-73
2022/08/01 00:17:19;;;;;;;;;;;21.00;99.90;;;;;;4929484;28;19945;-70
2022/08/01 00:19:45;;;;;;;;;;;21.00;99.90;;;;;;4992121;28;20483;-72
2022/08/01 00:22:10;;;;;;;;;;;21.00;99.90;;;;;;4987929;28;20380;-73
2022/08/01 00:24:35;;;;;;;;;;;20.90;99.90;;;;;;4995899;28;19921;-73
2022/08/01 00:27:01;;;;;;;;;;;20.90;99.90;;;;;;4987779;28;19976;-69
2022/08/01 00:29:26;;;;;;;;;;;20.90;99.90;;;;;;4986007;28;19959;-74
2022/08/01 00:31:52;;;;;;;;;;;20.80;99.90;;;;;;4986842;28;19945;-73
2022/08/01 00:34:17;;;;;;;;;;;20.70;99.90;;;;;;4988203;28;20347;-72
2022/08/01 00:36:42;;;;;;;;;;;20.60;99.90;;;;;;4995712;28;20414;-72
2022/08/01 00:39:08;;;;;;;;;;;20.60;99.90;;;;;;4991818;28;19918;-73
2022/08/01 00:41:33;;;;;;;;;;;20.50;99.90;;;;;;4997532;28;19924;-72
2022/08/01 00:44:01;;;;;;;;;;;20.70;99.90;;;;;;4988179;28;19918;-73
2022/08/01 00:46:27;;;;;;;;;;;20.80;99.90;;;;;;4987748;28;20372;-71
2022/08/01 00:48:53;;;;;;;;;;;20.40;99.90;;;;;;4988622;28;19916;-72
2022/08/01 00:51:18;;;;;;;;;;;20.30;99.90;;;;;;4996183;28;19918;-72
2022/08/01 00:53:44;;;;;;;;;;;20.20;99.90;;;;;;4988358;28;20273;-72
2022/08/01 00:56:10;;;;;;;;;;;20.20;99.90;;;;;;5000728;28;19930;-72
2022/08/01 00:58:36;;;;;;;;;;;20.20;99.90;;;;;;4987402;28;19983;-71
2022/08/01 01:01:02;;;;;;;;;;;20.10;99.90;;;;;;4985512;28;20008;-72
2022/08/01 01:03:27;;;;;;;;;;;20.10;99.90;;;;;;4986966;28;20023;-71
2022/08/01 01:06:08;;;;;;;;;;;20.20;99.90;;;;;;4990475;28;19925;-73
2022/08/01 01:08:42;;;;;;;;;;;20.30;99.90;;;;;;4986882;28;20384;-73
2022/08/01 01:11:18;;;;;;;;;;;20.20;99.90;;;;;;4991273;28;20465;-73
2022/08/01 01:13:47;;;;;;;;;;;20.20;99.90;;;;;;4987503;28;19914;-73
2022/08/01 01:16:14;;;;;;;;;;;20.30;99.90;;;;;;4998454;28;19918;-74
2022/08/01 01:18:46;;;;;;;;;;;20.10;99.90;;;;;;4987841;28;20005;-74
2022/08/01 01:21:18;;;;;;;;;;;20.10;99.90;;;;;;5001077;28;20281;-73
2022/08/01 01:23:54;;;;;;;;;;;20.20;99.90;;;;;;4987224;28;20031;-73
2022/08/01 01:26:19;;;;;;;;;;;20.20;99.90;;;;;;4979269;28;19940;-73
2022/08/01 01:28:48;;;;;;;;;;;20.30;99.90;;;;;;4988204;28;20360;-73
2022/08/01 01:31:14;;;;;;;;;;;20.30;99.90;;;;;;4999426;28;20055;-74
2022/08/01 01:33:40;;;;;;;;;;;20.30;99.90;;;;;;4986492;28;20292;-73
2022/08/01 01:36:07;;;;;;;;;;;20.20;99.90;;;;;;4992356;28;20076;-72
2022/08/01 01:38:33;;;;;;;;;;;20.30;99.90;;;;;;4986738;28;20379;-72
2022/08/01 01:40:59;;;;;;;;;;;20.30;99.90;;;;;;4988611;28;19918;-73
2022/08/01 01:43:26;;;;;;;;;;;20.10;99.90;;;;;;4986231;28;19968;-72
2022/08/01 01:45:52;;;;;;;;;;;20.10;99.90;;;;;;4989673;28;19960;-72
2022/08/01 01:48:18;;;;;;;;;;;20.10;99.90;;;;;;4992840;28;20360;-72
2022/08/01 01:50:45;;;;;;;;;;;20.00;99.90;;;;;;4992403;28;20369;-73
2022/08/01 01:53:12;;;;;;;;;;;19.80;99.90;;;;;;4984907;28;20388;-73
2022/08/01 01:55:39;;;;;;;;;;;19.70;99.90;;;;;;5001979;28;20285;-72
2022/08/01 01:58:05;;;;;;;;;;;19.70;99.90;;;;;;4985620;28;19929;-72
2022/08/01 02:00:31;;;;;;;;;;;19.60;99.90;;;;;;4986755;28;19969;-72
2022/08/01 02:02:56;;;;;;;;;;;19.70;99.90;;;;;;4987434;28;19922;-72
2022/08/01 02:05:22;;;;;;;;;;;19.60;99.90;;;;;;4991513;28;19975;-73
2022/08/01 02:07:48;;;;;;;;;;;19.60;99.90;;;;;;4985759;28;20349;-73
2022/08/01 02:10:15;;;;;;;;;;;19.60;99.90;;;;;;4988612;28;19945;-74
2022/08/01 02:12:42;;;;;;;;;;;19.70;99.90;;;;;;4989489;28;19918;-74
2022/08/01 02:15:09;;;;;;;;;;;19.60;99.90;;;;;;4995561;28;19969;-73
2022/08/01 02:17:37;;;;;;;;;;;19.40;99.90;;;;;;4984114;28;19922;-74
2022/08/01 02:20:03;;;;;;;;;;;19.50;99.90;;;;;;4993473;28;20161;-73
2022/08/01 02:22:33;;;;;;;;;;;19.60;99.90;;;;;;4990018;28;20373;-73
2022/08/01 02:25:18;;;;;;;;;;;19.40;99.90;;;;;;4986307;28;19964;-73
2022/08/01 02:27:50;;;;;;;;;;;19.50;99.90;;;;;;4986416;28;19918;-73
2022/08/01 02:30:16;;;;;;;;;;;19.60;99.90;;;;;;5000905;28;19922;-74
2022/08/01 02:32:50;;;;;;;;;;;19.60;99.90;;;;;;4990331;28;19972;-74
2022/08/01 02:35:30;;;;;;;;;;;19.50;99.90;;;;;;4979537;28;19928;-74
2022/08/01 02:37:56;;;;;;;;;;;19.40;99.90;;;;;;4987205;28;19972;-74
2022/08/01 02:40:22;;;;;;;;;;;19.40;99.90;;;;;;4987136;28;20040;-73
2022/08/01 02:42:49;;;;;;;;;;;19.60;99.90;;;;;;4988015;28;20431;-73
2022/08/01 02:45:17;;;;;;;;;;;19.60;99.90;;;;;;4995780;28;19930;-73
2022/08/01 02:47:43;;;;;;;;;;;19.70;99.90;;;;;;4988896;28;20365;-70
2022/08/01 02:50:11;;;;;;;;;;;19.70;99.90;;;;;;4995240;28;20016;-73
2022/08/01 02:52:37;;;;;;;;;;;19.70;99.90;;;;;;4985764;28;19944;-74
2022/08/01 02:55:03;;;;;;;;;;;19.70;99.90;;;;;;4998981;28;19972;-73
2022/08/01 02:57:29;;;;;;;;;;;19.60;99.90;;;;;;4991951;28;20324;-74
2022/08/01 02:59:55;;;;;;;;;;;19.70;99.90;;;;;;5002911;28;19921;-73
2022/08/01 03:02:22;;;;;;;;;;;19.60;99.90;;;;;;4989873;28;19918;-75
2022/08/01 03:04:48;;;;;;;;;;;19.50;99.90;;;;;;4990496;28;19918;-72
2022/08/01 03:07:14;;;;;;;;;;;19.60;99.90;;;;;;4985454;28;19918;-72
2022/08/01 03:09:42;;;;;;;;;;;19.50;99.90;;;;;;4992297;28;20069;-74
2022/08/01 03:12:10;;;;;;;;;;;19.50;99.90;;;;;;4986939;28;19952;-74
2022/08/01 03:14:36;;;;;;;;;;;19.30;99.90;;;;;;4996857;28;19924;-75
2022/08/01 03:17:03;;;;;;;;;;;19.30;99.90;;;;;;4986259;28;19921;-74
2022/08/01 03:19:30;;;;;;;;;;;19.40;99.90;;;;;;4985607;28;19913;-74
2022/08/01 03:21:58;;;;;;;;;;;19.40;99.90;;;;;;4984529;28;19914;-74
2022/08/01 03:24:23;;;;;;;;;;;19.40;99.90;;;;;;4985586;28;19960;-75
2022/08/01 03:26:49;;;;;;;;;;;19.40;99.90;;;;;;4989071;28;20000;-74
2022/08/01 03:29:21;;;;;;;;;;;19.30;99.90;;;;;;4985508;28;19917;-75
2022/08/01 03:31:47;;;;;;;;;;;19.30;99.90;;;;;;4988696;28;19921;-74
2022/08/01 03:34:13;;;;;;;;;;;19.30;99.90;;;;;;4985394;28;19910;-75
2022/08/01 03:36:59;;;;;;;;;;;19.30;99.90;;;;;;4986142;28;19922;-74
2022/08/01 03:39:27;;;;;;;;;;;19.30;99.90;;;;;;4984679;28;19964;-74
2022/08/01 03:41:55;;;;;;;;;;;19.40;99.90;;;;;;4988657;28;19925;-74
2022/08/01 03:44:24;;;;;;;;;;;19.50;99.90;;;;;;4985174;28;19909;-73
2022/08/01 03:47:00;;;;;;;;;;;19.50;99.90;;;;;;4987059;28;19924;-73
2022/08/01 03:49:29;;;;;;;;;;;19.40;99.90;;;;;;4985102;28;19917;-71
2022/08/01 03:51:55;;;;;;;;;;;19.40;99.90;;;;;;4989291;28;20449;-73
2022/08/01 03:54:21;;;;;;;;;;;19.50;99.90;;;;;;4985246;28;20004;-73
2022/08/01 03:56:48;;;;;;;;;;;19.60;99.90;;;;;;4997608;28;20376;-72
2022/08/01 03:59:15;;;;;;;;;;;19.60;99.90;;;;;;4929105;28;1675780;-68
2022/08/01 04:01:40;;;;;;;;;;;19.60;99.90;;;;;;4981622;28;19969;-74
2022/08/01 04:04:06;;;;;;;;;;;19.60;99.90;;;;;;4986240;28;20135;-73
2022/08/01 04:06:31;;;;;;;;;;;19.40;99.90;;;;;;5004260;28;19918;-74
2022/08/01 04:08:57;;;;;;;;;;;19.40;99.90;;;;;;4990188;28;19928;-74
2022/08/01 04:11:23;;;;;;;;;;;19.50;99.90;;;;;;4996985;28;19917;-73
2022/08/01 04:13:50;;;;;;;;;;;19.50;99.90;;;;;;4989835;28;19909;-73
2022/08/01 04:16:15;;;;;;;;;;;19.50;99.90;;;;;;5005870;28;19917;-76
2022/08/01 04:18:41;;;;;;;;;;;19.50;99.90;;;;;;4988212;28;19929;-74
2022/08/01 04:21:06;;;;;;;;;;;19.60;99.90;;;;;;4996658;28;20370;-72
2022/08/01 04:23:33;;;;;;;;;;;19.60;99.90;;;;;;4988577;28;19956;-73
2022/08/01 04:25:59;;;;;;;;;;;19.50;99.90;;;;;;4993717;28;19924;-73
2022/08/01 04:28:25;;;;;;;;;;;19.50;99.90;;;;;;4988312;28;20038;-73
2022/08/01 04:30:53;;;;;;;;;;;19.60;99.90;;;;;;5007891;28;19917;-73
2022/08/01 04:33:19;;;;;;;;;;;19.60;99.90;;;;;;4987742;28;19957;-73
2022/08/01 04:35:45;;;;;;;;;;;19.60;99.90;;;;;;4999383;28;19917;-73
2022/08/01 04:38:13;;;;;;;;;;;19.50;99.90;;;;;;4991764;28;20362;-73
2022/08/01 04:40:40;;;;;;;;;;;19.50;99.90;;;;;;5004236;28;19925;-73
2022/08/01 04:43:06;;;;;;;;;;;19.50;99.90;;;;;;4992828;28;19925;-73
2022/08/01 04:45:32;;;;;;;;;;;19.60;99.90;;;;;;5007758;28;20292;-73
2022/08/01 04:47:58;;;;;;;;;;;19.50;99.90;;;;;;4981642;28;19939;-74
2022/08/01 04:50:24;;;;;;;;;;;19.60;99.90;;;;;;5001470;28;19924;-73
2022/08/01 04:52:50;;;;;;;;;;;19.50;99.90;;;;;;4994593;28;19917;-72
2022/08/01 04:55:16;;;;;;;;;;;19.60;99.90;;;;;;4990877;28;19924;-73
2022/08/01 04:57:43;;;;;;;;;;;19.50;99.90;;;;;;4995601;28;20264;-73
2022/08/01 05:00:10;;;;;;;;;;;19.60;99.90;;;;;;4989954;28;19926;-73
2022/08/01 05:02:36;;;;;;;;;;;19.50;99.90;;;;;;4994227;28;19918;-74
2022/08/01 05:05:01;;;;;;;;;;;19.40;99.90;;;;;;5005184;28;20295;-73
2022/08/01 05:07:27;;;;;;;;;;;19.40;99.90;;;;;;4992828;28;19964;-74
2022/08/01 05:09:52;;;;;;;;;;;19.60;99.90;;;;;;4989574;28;19914;-73
2022/08/01 05:12:17;;;;;;;;;;;19.50;99.90;;;;;;4999112;28;20680;-72
2022/08/01 05:14:43;;;;;;;;;;;19.50;99.90;;;;;;4988351;28;19964;-73
2022/08/01 05:17:09;;;;;;;;;;;19.60;99.90;;;;;;4987803;28;19921;-74
2022/08/01 05:19:36;;;;;;;;;;;19.50;99.90;;;;;;4988565;28;19939;-74
2022/08/01 05:22:04;;;;;;;;;;;19.70;99.90;;;;;;4998592;28;19945;-73
2022/08/01 05:24:30;;;;;;;;;;;19.60;99.90;;;;;;4988531;28;19913;-73
2022/08/01 05:26:56;;;;;;;;;;;19.60;99.90;;;;;;4989134;28;20440;-73
2022/08/01 05:29:21;;;;;;;;;;;19.60;99.90;;;;;;4988196;28;20118;-73
2022/08/01 05:31:47;;;;;;;;;;;19.60;99.90;;;;;;4999654;28;19914;-73
2022/08/01 05:34:12;;;;;;;;;;;19.70;99.90;;;;;;4988151;28;20004;-74
2022/08/01 05:36:38;;;;;;;;;;;19.70;99.90;;;;;;4988186;28;19924;-73
2022/08/01 05:39:03;;;;;;;;;;;19.80;99.90;;;;;;4988299;28;20283;-73
2022/08/01 05:41:29;;;;;;;;;;;19.60;99.90;;;;;;4988800;28;19933;-73
2022/08/01 05:43:54;;;;;;;;;;;19.60;99.90;;;;;;4986499;28;19917;-73
2022/08/01 05:46:20;;;;;;;;;;;19.70;99.90;;;;;;4997138;28;20285;-74
2022/08/01 05:48:45;;;;;;;;;;;19.80;99.90;;;;;;4987455;28;19918;-74
2022/08/01 05:51:11;;;;;;;;;;;19.80;99.90;;;;;;4999910;28;20061;-73
2022/08/01 05:53:36;;;;;;;;;;;19.90;99.90;;;;;;4989120;28;20049;-74
2022/08/01 05:56:01;;;;;;;;;;;19.80;99.90;;;;;;5003617;28;19917;-74
2022/08/01 05:58:27;;;;;;;;;;;19.80;99.90;;;;;;4990272;28;20341;-74
2022/08/01 06:00:52;;;;;;;;;;;19.90;99.90;;;;;;4992835;28;19956;-74
2022/08/01 06:03:18;;;;;;;;;;;20.00;99.90;;;;;;4986340;28;20103;-74
2022/08/01 06:05:43;;;;;;;;;;;19.90;99.90;;;;;;4989717;28;20396;-74
2022/08/01 06:08:09;;;;;;;;;;;19.90;99.90;;;;;;4992989;28;19914;-74
2022/08/01 06:10:34;;;;;;;;;;;19.70;99.90;;;;;;4990846;28;19991;-74
2022/08/01 06:13:02;;;;;;;;;;;19.70;99.90;;;;;;4993938;28;20313;-74
2022/08/01 06:15:29;;;;;;;;;;;19.70;99.90;;;;;;4989182;28;19917;-73
2022/08/01 06:17:54;;;;;;;;;;;19.70;99.90;;;;;;4985239;28;20316;-73
2022/08/01 06:20:20;;;;;;;;;;;19.80;99.90;;;;;;5006184;28;19917;-74
2022/08/01 06:22:45;;;;;;;;;;;19.90;99.90;;;;;;4977143;28;20403;-74
2022/08/01 06:25:10;;;;;;;;;;;19.90;99.90;;;;;;5001259;28;20005;-73
2022/08/01 06:27:36;;;;;;;;;;;20.10;99.90;;;;;;4990700;28;19933;-72
2022/08/01 06:30:02;;;;;;;;;;;20.10;99.90;;;;;;4986875;28;19920;-73
2022/08/01 06:32:28;;;;;;;;;;;20.10;99.90;;;;;;4989294;28;20451;-73
2022/08/01 06:34:54;;;;;;;;;;;20.20;99.90;;;;;;4987100;28;19917;-73
2022/08/01 06:37:19;;;;;;;;;;;20.20;99.90;;;;;;4990042;28;20296;-73
2022/08/01 06:39:45;;;;;;;;;;;20.20;99.90;;;;;;4986752;28;20215;-73
2022/08/01 06:42:10;;;;;;;;;;;20.30;99.90;;;;;;4991514;28;19929;-73
2022/08/01 06:44:35;;;;;;;;;;;20.40;99.90;;;;;;4986485;28;19929;-74
2022/08/01 06:47:01;;;;;;;;;;;20.60;99.90;;;;;;4996944;28;19965;-73
2022/08/01 06:49:27;;;;;;;;;;;20.60;99.90;;;;;;4986615;28;19987;-74
2022/08/01 06:51:52;;;;;;;;;;;20.50;99.90;;;;;;4997601;28;19932;-73
2022/08/01 06:54:17;;;;;;;;;;;20.40;99.90;;;;;;4986548;28;19914;-71
2022/08/01 06:56:43;;;;;;;;;;;20.40;99.90;;;;;;4988374;28;19922;-74
2022/08/01 06:59:08;;;;;;;;;;;20.50;99.90;;;;;;4982097;28;19945;-72
2022/08/01 07:01:34;;;;;;;;;;;20.50;99.90;;;;;;4977878;28;19909;-70
2022/08/01 07:04:00;;;;;;;;;;;20.40;99.90;;;;;;4978603;28;19914;-73
2022/08/01 07:06:25;;;;;;;;;;;20.20;99.90;;;;;;4977827;28;20297;-71
2022/08/01 07:08:54;;;;;;;;;;;20.20;99.90;;;;;;4982471;28;19918;-73
2022/08/01 07:11:19;;;;;;;;;;;20.40;99.90;;;;;;4975285;28;19918;-73
2022/08/01 07:13:45;;;;;;;;;;;20.50;99.90;;;;;;4986059;28;19918;-73
2022/08/01 07:16:11;;;;;;;;;;;20.50;99.90;;;;;;4992678;28;20004;-71
2022/08/01 07:18:37;;;;;;;;;;;20.40;99.90;;;;;;4967743;28;20485;-74
2022/08/01 07:21:02;;;;;;;;;;;20.50;99.90;;;;;;4994481;28;19925;-80
2022/08/01 07:23:28;;;;;;;;;;;20.50;99.90;;;;;;4984788;28;19944;-74
2022/08/01 07:25:53;;;;;;;;;;;20.40;99.90;;;;;;4990512;28;19917;-73
2022/08/01 07:28:18;;;;;;;;;;;20.40;99.90;;;;;;4985642;28;19972;-72
2022/08/01 07:30:44;;;;;;;;;;;20.40;99.90;;;;;;4991735;28;19918;-72
2022/08/01 07:33:10;;;;;;;;;;;20.40;99.90;;;;;;4990816;28;19965;-72
2022/08/01 07:35:38;;;;;;;;;;;20.60;99.90;;;;;;4988962;28;19917;-69
2022/08/01 07:38:04;;;;;;;;;;;20.70;99.90;;;;;;4993015;28;20277;-82
2022/08/01 07:40:29;;;;;;;;;;;21.00;99.90;;;;;;4990098;28;19913;-81
2022/08/01 07:42:54;;;;;;;;;;;21.20;99.90;;;;;;4996920;28;19924;-72
2022/08/01 07:45:20;;;;;;;;;;;21.20;99.90;;;;;;4985490;28;19914;-72
2022/08/01 07:47:46;;;;;;;;;;;21.10;99.90;;;;;;4993658;28;19921;-71
2022/08/01 07:50:12;;;;;;;;;;;20.80;99.90;;;;;;4985357;28;20376;-71
2022/08/01 07:52:38;;;;;;;;;;;20.60;99.90;;;;;;4990885;28;19964;-71
2022/08/01 07:55:03;;;;;;;;;;;20.60;99.90;;;;;;4985614;28;20017;-72
2022/08/01 07:57:29;;;;;;;;;;;20.60;99.90;;;;;;4991709;28;19944;-72
2022/08/01 07:59:54;;;;;;;;;;;20.70;99.90;;;;;;4990731;28;19925;-72
2022/08/01 08:02:20;;;;;;;;;;;20.60;99.90;;;;;;4983779;28;19914;-73
2022/08/01 08:04:45;;;;;;;;;;;20.50;99.90;;;;;;4985580;28;19920;-72
2022/08/01 08:07:10;;;;;;;;;;;20.50;99.90;;;;;;4989542;28;19914;-72
2022/08/01 08:09:36;;;;;;;;;;;20.50;99.90;;;;;;4985427;28;20387;-73
2022/08/01 08:12:01;;;;;;;;;;;20.50;99.90;;;;;;4989176;28;19969;-72
2022/08/01 08:14:27;;;;;;;;;;;20.50;99.90;;;;;;4983748;28;19964;-71
2022/08/01 08:16:52;;;;;;;;;;;20.80;99.90;;;;;;4988904;28;20764;-72
2022/08/01 08:19:18;;;;;;;;;;;20.90;99.90;;;;;;4984916;28;19918;-71
2022/08/01 08:21:43;;;;;;;;;;;20.80;99.90;;;;;;4999559;28;20037;-72
2022/08/01 08:24:23;;;;;;;;;;;20.90;99.90;;;;;;4986397;28;20380;-73
2022/08/01 08:26:49;;;;;;;;;;;20.80;99.90;;;;;;4991315;28;19925;-73
2022/08/01 08:29:15;;;;;;;;;;;20.70;99.90;;;;;;4985677;28;19918;-73
2022/08/01 08:31:40;;;;;;;;;;;20.80;99.90;;;;;;4995637;28;19918;-73
2022/08/01 08:34:06;;;;;;;;;;;20.90;99.90;;;;;;4986981;28;20004;-73
2022/08/01 08:36:31;;;;;;;;;;;20.90;99.90;;;;;;4992874;28;19969;-73
2022/08/01 08:39:00;;;;;;;;;;;20.80;99.90;;;;;;4987725;28;19918;-73
2022/08/01 08:41:25;;;;;;;;;;;20.90;99.90;;;;;;4986117;28;19918;-72
2022/08/01 08:43:50;;;;;;;;;;;20.90;99.90;;;;;;4989207;28;19918;-72
2022/08/01 08:46:16;;;;;;;;;;;20.90;99.90;;;;;;4999199;28;20284;-72
2022/08/01 08:48:41;;;;;;;;;;;21.00;99.90;;;;;;4990321;28;19913;-73
2022/08/01 08:51:11;;;;;;;;;;;21.30;99.90;;;;;;4996120;28;19917;-72
2022/08/01 08:53:38;;;;;;;;;;;21.70;99.90;;;;;;4986683;28;19976;-73
2022/08/01 08:56:06;;;;;;;;;;;21.70;99.90;;;;;;5000282;28;20369;-72
2022/08/01 08:58:37;;;;;;;;;;;22.00;99.90;;;;;;5004913;28;20456;-75
2022/08/01 09:01:04;;;;;;;;;;;22.10;99.90;;;;;;4984467;28;19958;-71
2022/08/01 09:03:30;;;;;;;;;;;22.00;99.90;;;;;;4982854;28;20057;-71
2022/08/01 09:05:55;;;;;;;;;;;22.00;99.90;;;;;;4978991;28;19918;-71
2022/08/01 09:08:21;;;;;;;;;;;21.60;99.90;;;;;;4985341;28;19918;-71
2022/08/01 09:10:46;;;;;;;;;;;21.50;99.90;;;;;;5002121;28;19918;-71
2022/08/01 09:13:13;;;;;;;;;;;21.40;99.90;;;;;;5003624;28;19922;-72
2022/08/01 09:15:50;;;;;;;;;;;21.30;99.90;;;;;;4996230;28;19913;-72
2022/08/01 09:18:31;;;;;;;;;;;21.40;99.90;;;;;;4972654;28;19922;-72
2022/08/01 09:21:07;;;;;;;;;;;21.60;99.90;;;;;;4982316;28;20477;-72
2022/08/01 09:23:33;;;;;;;;;;;21.80;99.90;;;;;;4977227;28;19940;-71
2022/08/01 09:25:58;;;;;;;;;;;21.80;99.90;;;;;;4987585;28;19925;-72
2022/08/01 09:28:28;;;;;;;;;;;21.90;99.90;;;;;;4980363;28;19925;-73
2022/08/01 09:30:55;;;;;;;;;;;21.90;99.90;;;;;;4992911;28;19917;-72
2022/08/01 09:33:20;;;;;;;;;;;21.80;99.90;;;;;;4991419;28;19918;-72
2022/08/01 09:35:53;;;;;;;;;;;21.80;99.90;;;;;;4989499;28;19924;-72
2022/08/01 09:38:23;;;;;;;;;;;21.70;99.90;;;;;;4975930;28;20377;-72
2022/08/01 09:40:53;;;;;;;;;;;21.50;99.90;;;;;;4981538;28;20289;-73
2022/08/01 09:43:19;;;;;;;;;;;21.40;99.90;;;;;;4982907;28;19918;-73
2022/08/01 09:45:45;;;;;;;;;;;21.40;99.90;;;;;;4981876;28;20394;-73
2022/08/01 09:48:15;;;;;;;;;;;21.30;99.90;;;;;;4996419;28;19949;-73
2022/08/01 09:50:42;;;;;;;;;;;21.30;99.90;;;;;;4987605;28;20408;-80
2022/08/01 09:53:08;;;;;;;;;;;21.30;99.90;;;;;;4992025;28;19921;-81
2022/08/01 09:55:34;;;;;;;;;;;21.50;99.90;;;;;;4988225;28;19914;-83
2022/08/01 09:58:00;;;;;;;;;;;21.40;99.90;;;;;;4990849;28;19918;-72
2022/08/01 10:00:26;;;;;;;;;;;21.40;99.90;;;;;;4980370;28;19925;-73
2022/08/01 10:02:51;;;;;;;;;;;21.70;99.90;;;;;;4977904;28;19917;-72
2022/08/01 10:05:17;;;;;;;;;;;22.00;99.90;;;;;;4979687;28;20289;-73
2022/08/01 10:08:17;;;;;;;;;;;21.70;99.90;;;;;;4979313;28;20316;-72
2022/08/01 10:11:03;;;;;;;;;;;21.90;99.90;;;;;;4950186;28;19914;-72
2022/08/01 10:13:28;;;;;;;;;;;21.90;99.90;;;;;;4976524;28;19918;-71
2022/08/01 10:15:53;;;;;;;;;;;21.90;99.90;;;;;;4984835;28;20298;-70
2022/08/01 10:18:19;;;;;;;;;;;22.00;99.90;;;;;;4982632;28;19922;-72
2022/08/01 10:20:45;;;;;;;;;;;22.20;99.90;;;;;;4979927;28;19973;-72
2022/08/01 10:23:10;;;;;;;;;;;22.10;99.90;;;;;;4979466;28;19914;-73
2022/08/01 10:25:40;;;;;;;;;;;22.20;99.90;;;;;;4974306;28;19954;-72
2022/08/01 10:28:09;;;;;;;;;;;22.30;99.90;;;;;;4996180;28;19945;-71
2022/08/01 10:30:35;;;;;;;;;;;22.00;99.90;;;;;;4986602;28;19914;-71
2022/08/01 10:33:01;;;;;;;;;;;21.80;99.90;;;;;;4988132;28;19980;-72
2022/08/01 10:35:27;;;;;;;;;;;21.70;99.90;;;;;;4986355;28;19914;-71
2022/08/01 10:37:57;;;;;;;;;;;21.70;99.90;;;;;;5001128;28;20388;-72
2022/08/01 10:40:23;;;;;;;;;;;21.80;99.90;;;;;;4986249;28;19956;-72
2022/08/01 10:42:49;;;;;;;;;;;21.90;99.90;;;;;;4993703;28;19966;-72
2022/08/01 10:45:15;;;;;;;;;;;22.00;99.90;;;;;;4985862;28;20320;-72
2022/08/01 10:47:59;;;;;;;;;;;22.00;99.90;;;;;;4986705;28;19924;-71
2022/08/01 10:50:32;;;;;;;;;;;22.00;99.90;;;;;;4979735;28;20657;-72
2022/08/01 10:53:07;;;;;;;;;;;22.00;99.90;;;;;;4983238;28;20705;-73
2022/08/01 10:55:56;;;;;;;;;;;22.20;99.90;;;;;;4980684;28;20039;-72
2022/08/01 10:58:26;;;;;;;;;;;22.20;99.90;;;;;;4973995;28;19922;-72
2022/08/01 11:01:10;;;;;;;;;;;22.20;99.90;;;;;;4976142;28;20480;-72
2022/08/01 11:03:35;;;;;;;;;;;22.50;99.90;;;;;;4980269;28;19972;-71
2022/08/01 11:06:03;;;;;;;;;;;22.40;99.90;;;;;;4986039;28;19913;-71
2022/08/01 11:08:30;;;;;;;;;;;22.30;99.90;;;;;;4996544;28;20299;-73
2022/08/01 11:11:02;;;;;;;;;;;22.20;99.90;;;;;;4986051;28;19937;-72
2022/08/01 11:13:46;;;;;;;;;;;22.20;99.90;;;;;;4988267;28;20004;-73
2022/08/01 11:16:31;;;;;;;;;;;22.00;99.90;;;;;;5002200;28;19913;-73
2022/08/01 11:18:57;;;;;;;;;;;21.60;99.90;;;;;;4979318;28;19952;-72
2022/08/01 11:21:42;;;;;;;;;;;21.40;99.90;;;;;;4979753;28;20284;-72
2022/08/01 11:24:07;;;;;;;;;;;21.60;99.90;;;;;;4978286;28;19928;-71
2022/08/01 11:26:33;;;;;;;;;;;21.60;99.90;;;;;;4981625;28;19918;-72
2022/08/01 11:29:14;;;;;;;;;;;21.40;99.90;;;;;;4980527;28;19973;-73
2022/08/01 11:31:40;;;;;;;;;;;21.30;99.90;;;;;;4980640;28;20373;-72
2022/08/01 11:34:06;;;;;;;;;;;21.40;99.90;;;;;;4976996;28;20004;-71
2022/08/01 11:36:31;;;;;;;;;;;21.30;99.90;;;;;;4976724;28;20380;-72
2022/08/01 11:38:57;;;;;;;;;;;21.30;99.90;;;;;;4978729;28;20001;-71
2022/08/01 11:41:23;;;;;;;;;;;21.30;99.90;;;;;;4983086;28;19957;-71
2022/08/01 11:43:55;;;;;;;;;;;21.50;99.90;;;;;;4983311;28;19941;-71
2022/08/01 11:46:39;;;;;;;;;;;21.70;99.90;;;;;;4985836;28;19925;-72
2022/08/01 11:49:23;;;;;;;;;;;21.70;99.90;;;;;;4992592;28;20564;-72
2022/08/01 11:51:56;;;;;;;;;;;21.80;99.90;;;;;;4993144;28;20585;-73
2022/08/01 11:54:24;;;;;;;;;;;22.20;99.90;;;;;;4982005;28;19918;-72
2022/08/01 11:56:53;;;;;;;;;;;22.80;99.90;;;;;;4994753;28;19925;-71
2022/08/01 11:59:19;;;;;;;;;;;22.60;99.90;;;;;;4991024;28;20048;-72
2022/08/01 12:01:44;;;;;;;;;;;22.80;99.90;;;;;;4984015;28;20009;-72
2022/08/01 12:04:10;;;;;;;;;;;22.90;99.90;;;;;;4984360;28;19960;-72
2022/08/01 12:06:35;;;;;;;;;;;22.70;99.90;;;;;;4984683;28;19924;-73
2022/08/01 12:09:17;;;;;;;;;;;22.60;99.90;;;;;;4985472;28;20266;-73
2022/08/01 12:11:43;;;;;;;;;;;22.70;99.90;;;;;;4984897;28;20004;-72
2022/08/01 12:14:08;;;;;;;;;;;22.70;99.90;;;;;;4985256;28;19917;-73
2022/08/01 12:16:34;;;;;;;;;;;22.70;99.90;;;;;;4983886;28;19925;-73
2022/08/01 12:19:00;;;;;;;;;;;23.20;99.90;;;;;;4984373;28;19921;-72
2022/08/01 12:21:25;;;;;;;;;;;23.50;99.90;;;;;;4982721;28;19918;-70
2022/08/01 12:24:00;;;;;;;;;;;24.00;99.90;;;;;;4986723;28;19992;-72
2022/08/01 12:26:41;;;;;;;;;;;23.90;99.90;;;;;;4985910;28;20046;-73
2022/08/01 12:29:07;;;;;;;;;;;24.00;99.90;;;;;;4985774;28;20381;-71
2022/08/01 12:31:33;;;;;;;;;;;24.20;99.90;;;;;;4988086;28;19930;-72
2022/08/01 12:34:18;;;;;;;;;;;24.10;99.90;;;;;;4988534;28;20056;-72
2022/08/01 12:36:44;;;;;;;;;;;23.80;99.90;;;;;;4985582;28;19918;-72
2022/08/01 12:39:09;;;;;;;;;;;24.10;99.90;;;;;;4987948;28;19913;-71
2022/08/01 12:41:36;;;;;;;;;;;23.90;99.90;;;;;;4994471;28;20292;-73
2022/08/01 12:44:01;;;;;;;;;;;23.60;99.90;;;;;;4988396;28;19997;-73
2022/08/01 12:46:27;;;;;;;;;;;23.70;99.90;;;;;;4985545;28;20052;-72
2022/08/01 12:48:52;;;;;;;;;;;24.20;99.90;;;;;;5000406;28;19980;-73
2022/08/01 12:51:18;;;;;;;;;;;24.40;99.90;;;;;;4995691;28;20300;-66
2022/08/01 12:53:43;;;;;;;;;;;24.50;99.90;;;;;;4986035;28;20223;-67
2022/08/01 12:56:09;;;;;;;;;;;24.40;99.90;;;;;;4997258;28;20393;-66
2022/08/01 12:58:35;;;;;;;;;;;24.30;99.90;;;;;;4986388;28;20366;-67
2022/08/01 13:01:10;;;;;;;;;;;24.10;99.90;;;;;;4989655;28;19929;-67
2022/08/01 13:03:36;;;;;;;;;;;24.10;99.90;;;;;;4985999;28;19971;-67
2022/08/01 13:06:09;;;;;;;;;;;23.50;99.90;;;;;;4988344;28;19921;-66
2022/08/01 13:08:37;;;;;;;;;;;23.30;99.90;;;;;;4979198;28;20000;-67
2022/08/01 13:11:05;;;;;;;;;;;23.30;99.90;;;;;;4968325;28;20366;-67
2022/08/01 13:13:39;;;;;;;;;;;23.30;99.90;;;;;;4946470;28;19928;-67
2022/08/01 13:16:05;;;;;;;;;;;23.20;99.90;;;;;;4956440;28;19971;-65
2022/08/01 13:18:32;;;;;;;;;;;23.10;99.90;;;;;;4986321;28;20073;-65
2022/08/01 13:21:13;;;;;;;;;;;23.30;99.90;;;;;;4987775;28;19928;-67
2022/08/01 13:23:39;;;;;;;;;;;23.30;99.90;;;;;;4987441;28;19928;-64
2022/08/01 13:26:05;;;;;;;;;;;23.50;99.90;;;;;;4999541;28;19914;-68
2022/08/01 13:28:31;;;;;;;;;;;23.90;99.90;;;;;;4943370;28;19925;-69
2022/08/01 13:30:58;;;;;;;;;;;24.50;99.90;;;;;;4988637;28;19918;-80
2022/08/01 13:33:24;;;;;;;;;;;24.90;99.90;;;;;;4986936;28;19918;-79
2022/08/01 13:35:51;;;;;;;;;;;24.90;99.90;;;;;;4987121;28;20383;-79
2022/08/01 13:38:17;;;;;;;;;;;24.40;99.90;;;;;;4986721;28;19922;-76
2022/08/01 13:40:42;;;;;;;;;;;24.00;99.90;;;;;;4987767;28;20232;-79
2022/08/01 13:43:07;;;;;;;;;;;23.90;99.90;;;;;;4985490;28;19922;-78
2022/08/01 13:45:33;;;;;;;;;;;24.00;99.90;;;;;;4989118;28;20312;-77
2022/08/01 13:47:59;;;;;;;;;;;24.00;99.90;;;;;;4986211;28;19925;-78
2022/08/01 13:50:24;;;;;;;;;;;24.00;99.90;;;;;;4987839;28;19914;-79
2022/08/01 13:52:50;;;;;;;;;;;24.20;99.90;;;;;;4985441;28;19961;-78
2022/08/01 13:55:15;;;;;;;;;;;24.40;99.90;;;;;;4986695;28;19976;-78
2022/08/01 13:57:40;;;;;;;;;;;24.60;99.90;;;;;;4987212;28;20449;-79
2022/08/01 14:00:07;;;;;;;;;;;24.70;99.90;;;;;;4988091;28;19926;-78
2022/08/01 14:02:32;;;;;;;;;;;24.70;99.90;;;;;;4984762;28;19925;-79
2022/08/01 14:04:58;;;;;;;;;;;24.60;99.90;;;;;;4985784;28;19918;-79
2022/08/01 14:07:24;;;;;;;;;;;24.50;99.90;;;;;;4985908;28;19941;-80
2022/08/01 14:09:49;;;;;;;;;;;24.60;99.90;;;;;;4985980;28;19913;-78
2022/08/01 14:12:15;;;;;;;;;;;25.80;99.70;;;;;;4986618;28;20086;-79
2022/08/01 14:14:40;;;;;;;;;;;26.40;97.30;;;;;;4985892;28;19910;-79
2022/08/01 14:17:05;;;;;;;;;;;27.10;97.20;;;;;;4984920;28;19921;-76